sensor_id;sensor_type;location;lat;lon;timestamp;temperature;humidity
52321;DHT22;38261;54.090;13.382;2022-07-06T00:00:22;14.80;99.90
52321;DHT22;38261;54.090;13.382;2022-07-06T00:01:45;14.70;99.90
52321;DHT22;38261;54.090;13.382;2022-07-06T00:03:07;14.70;99.90
52321;DHT22;38261;54.090;13.382;2022-07-06T00:04:29;14.70;99.90
52321;DHT22;38261;54.090;13.382;2022-07-06T00:05:51;14.70;99.90
52321;DHT22;38261;54.090;13.382;2022-07-06T00:07:14;14.60;99.90
52321;DHT22;38261;54.090;13.382;2022-07-06T00:08:36;14.60;99.90
52321;DHT22;38261;54.090;13.382;2022-07-06T00:09:59;14.60;99.90
52321;DHT22;38261;54.090;13.382;2022-07-06T00:11:21;14.60;99.90
52321;DHT22;38261;54.090;13.382;2022-07-06T00:12:43;14.60;99.90
52321;DHT22;38261;54.090;13.382;2022-07-06T00:14:05;14.60;99.90
52321;DHT22;38261;54.090;13.382;2022-07-06T00:15:28;14.60;99.90
52321;DHT22;38261;54.090;13.382;2022-07-06T00:16:50;14.50;99.90
52321;DHT22;38261;54.090;13.382;2022-07-06T00:18:13;14.50;99.90
52321;DHT22;38261;54.090;13.382;2022-07-06T00:19:35;14.50;99.90
52321;DHT22;38261;54.090;13.382;2022-07-06T00:20:57;14.50;99.90
52321;DHT22;38261;54.090;13.382;2022-07-06T00:22:19;14.50;99.90
52321;DHT22;38261;54.090;13.382;2022-07-06T00:23:42;14.40;99.90
52321;DHT22;38261;54.090;13.382;2022-07-06T00:25:05;14.40;99.90
52321;DHT22;38261;54.090;13.382;2022-07-06T00:26:27;14.40;99.90
52321;DHT22;38261;54.090;13.382;2022-07-06T00:27:49;14.40;99.90
52321;DHT22;38261;54.090;13.382;2022-07-06T00:29:11;14.40;99.90
52321;DHT22;38261;54.090;13.382;2022-07-06T00:30:34;14.40;99.90
52321;DHT22;38261;54.090;13.382;2022-07-06T00:31:56;14.40;99.90
52321;DHT22;38261;54.090;13.382;2022-07-06T00:33:18;14.30;99.90
52321;DHT22;38261;54.090;13.382;2022-07-06T00:34:40;14.30;99.90
52321;DHT22;38261;54.090;13.382;2022-07-06T00:36:03;14.30;99.90
52321;DHT22;38261;54.090;13.382;2022-07-06T00:37:25;14.30;99.90
52321;DHT22;38261;54.090;13.382;2022-07-06T00:38:47;14.30;99.90
52321;DHT22;38261;54.090;13.382;2022-07-06T00:40:10;14.30;99.90
52321;DHT22;38261;54.090;13.382;2022-07-06T00:41:32;14.30;99.90
52321;DHT22;38261;54.090;13.382;2022-07-06T00:42:54;14.30;99.90
52321;DHT22;38261;54.090;13.382;2022-07-06T00:44:16;14.30;99.90
52321;DHT22;38261;54.090;13.382;2022-07-06T00:45:38;14.30;99.90
52321;DHT22;38261;54.090;13.382;2022-07-06T00:47:01;14.30;99.90
52321;DHT22;38261;54.090;13.382;2022-07-06T00:48:23;14.30;99.90
52321;DHT22;38261;54.090;13.382;2022-07-06T00:49:46;14.20;99.90
52321;DHT22;38261;54.090;13.382;2022-07-06T00:51:30;14.20;99.90
52321;DHT22;38261;54.090;13.382;2022-07-06T00:52:56;14.20;99.90
52321;DHT22;38261;54.090;13.382;2022-07-06T00:54:18;14.20;99.90
52321;DHT22;38261;54.090;13.382;2022-07-06T00:55:40;14.20;99.90
52321;DHT22;38261;54.090;13.382;2022-07-06T00:57:03;14.20;99.90
52321;DHT22;38261;54.090;13.382;2022-07-06T00:58:25;14.10;99.90
52321;DHT22;38261;54.090;13.382;2022-07-06T00:59:47;14.10;99.90
52321;DHT22;38261;54.090;13.382;2022-07-06T01:01:09;14.10;99.90
52321;DHT22;38261;54.090;13.382;2022-07-06T01:02:32;14.10;99.90
52321;DHT22;38261;54.090;13.382;2022-07-06T01:03:54;14.00;99.90
52321;DHT22;38261;54.090;13.382;2022-07-06T01:05:17;14.00;99.90
52321;DHT22;38261;54.090;13.382;2022-07-06T01:06:40;14.00;99.90
52321;DHT22;38261;54.090;13.382;2022-07-06T01:08:03;14.00;99.90
52321;DHT22;38261;54.090;13.382;2022-07-06T01:09:25;13.90;99.90
52321;DHT22;38261;54.090;13.382;2022-07-06T01:10:47;13.90;99.90
52321;DHT22;38261;54.090;13.382;2022-07-06T01:12:09;13.90;99.90
52321;DHT22;38261;54.090;13.382;2022-07-06T01:13:33;13.90;99.90
52321;DHT22;38261;54.090;13.382;2022-07-06T01:14:55;13.80;99.90
52321;DHT22;38261;54.090;13.382;2022-07-06T01:16:18;13.80;99.90
52321;DHT22;38261;54.090;13.382;2022-07-06T01:17:41;13.80;99.90
52321;DHT22;38261;54.090;13.382;2022-07-06T01:19:03;13.80;99.90
52321;DHT22;38261;54.090;13.382;2022-07-06T01:20:26;13.70;99.90
52321;DHT22;38261;54.090;13.382;2022-07-06T01:21:48;13.70;99.90
52321;DHT22;38261;54.090;13.382;2022-07-06T01:23:11;13.70;99.90
52321;DHT22;38261;54.090;13.382;2022-07-06T01:24:36;13.70;99.90
52321;DHT22;38261;54.090;13.382;2022-07-06T01:25:58;13.70;99.90
52321;DHT22;38261;54.090;13.382;2022-07-06T01:27:20;13.70;99.90
52321;DHT22;38261;54.090;13.382;2022-07-06T01:28:43;13.70;99.90
52321;DHT22;38261;54.090;13.382;2022-07-06T01:30:06;13.70;99.90
52321;DHT22;38261;54.090;13.382;2022-07-06T01:31:29;13.70;99.90
52321;DHT22;38261;54.090;13.382;2022-07-06T01:32:52;13.70;99.90
52321;DHT22;38261;54.090;13.382;2022-07-06T01:34:15;13.70;99.90
52321;DHT22;38261;54.090;13.382;2022-07-06T01:35:37;13.70;99.90
52321;DHT22;38261;54.090;13.382;2022-07-06T01:37:00;13.70;99.90
52321;DHT22;38261;54.090;13.382;2022-07-06T01:38:22;13.70;99.90
52321;DHT22;38261;54.090;13.382;2022-07-06T01:39:45;13.70;99.90
52321;DHT22;38261;54.090;13.382;2022-07-06T01:41:07;13.70;99.90
52321;DHT22;38261;54.090;13.382;2022-07-06T01:42:29;13.70;99.90
52321;DHT22;38261;54.090;13.382;2022-07-06T01:43:51;13.70;99.90
52321;DHT22;38261;54.090;13.382;2022-07-06T01:45:14;13.60;99.90
52321;DHT22;38261;54.090;13.382;2022-07-06T01:46:36;13.60;99.90
52321;DHT22;38261;54.090;13.382;2022-07-06T01:47:58;13.50;99.90
52321;DHT22;38261;54.090;13.382;2022-07-06T01:49:20;13.50;99.90
52321;DHT22;38261;54.090;13.382;2022-07-06T01:50:42;13.50;99.90
52321;DHT22;38261;54.090;13.382;2022-07-06T01:52:04;13.40;99.90
52321;DHT22;38261;54.090;13.382;2022-07-06T01:53:27;13.40;99.90
52321;DHT22;38261;54.090;13.382;2022-07-06T01:54:49;13.40;99.90
52321;DHT22;38261;54.090;13.382;2022-07-06T01:56:12;13.30;99.90
52321;DHT22;38261;54.090;13.382;2022-07-06T01:57:34;13.30;99.90
52321;DHT22;38261;54.090;13.382;2022-07-06T01:58:56;13.30;99.90
52321;DHT22;38261;54.090;13.382;2022-07-06T02:00:19;13.30;99.90
52321;DHT22;38261;54.090;13.382;2022-07-06T02:01:41;13.20;99.90
52321;DHT22;38261;54.090;13.382;2022-07-06T02:03:03;13.20;99.90
52321;DHT22;38261;54.090;13.382;2022-07-06T02:04:25;13.20;99.90
52321;DHT22;38261;54.090;13.382;2022-07-06T02:05:48;13.20;99.90
52321;DHT22;38261;54.090;13.382;2022-07-06T02:07:10;13.20;99.90
52321;DHT22;38261;54.090;13.382;2022-07-06T02:08:36;13.20;99.90
52321;DHT22;38261;54.090;13.382;2022-07-06T02:09:58;13.20;99.90
52321;DHT22;38261;54.090;13.382;2022-07-06T02:11:21;13.20;99.90
52321;DHT22;38261;54.090;13.382;2022-07-06T02:12:43;13.20;99.90
52321;DHT22;38261;54.090;13.382;2022-07-06T02:14:05;13.20;99.90
52321;DHT22;38261;54.090;13.382;2022-07-06T02:15:27;13.20;99.90
52321;DHT22;38261;54.090;13.382;2022-07-06T02:16:49;13.20;99.90
52321;DHT22;38261;54.090;13.382;2022-07-06T02:18:12;13.20;99.90
52321;DHT22;38261;54.090;13.382;2022-07-06T02:19:34;13.20;99.90
52321;DHT22;38261;54.090;13.382;2022-07-06T02:20:56;13.20;99.90
52321;DHT22;38261;54.090;13.382;2022-07-06T02:22:18;13.20;99.90
52321;DHT22;38261;54.090;13.382;2022-07-06T02:23:41;13.20;99.90
52321;DHT22;38261;54.090;13.382;2022-07-06T02:25:03;13.20;99.90
52321;DHT22;38261;54.090;13.382;2022-07-06T02:26:26;13.20;99.90
52321;DHT22;38261;54.090;13.382;2022-07-06T02:27:48;13.20;99.90
52321;DHT22;38261;54.090;13.382;2022-07-06T02:29:10;13.20;99.90
52321;DHT22;38261;54.090;13.382;2022-07-06T02:30:32;13.30;99.90
52321;DHT22;38261;54.090;13.382;2022-07-06T02:31:54;13.30;99.90
52321;DHT22;38261;54.090;13.382;2022-07-06T02:33:17;13.30;99.90
52321;DHT22;38261;54.090;13.382;2022-07-06T02:34:39;13.30;99.90
52321;DHT22;38261;54.090;13.382;2022-07-06T02:36:01;13.30;99.90
52321;DHT22;38261;54.090;13.382;2022-07-06T02:37:23;13.30;99.90
52321;DHT22;38261;54.090;13.382;2022-07-06T02:38:45;13.30;99.90
52321;DHT22;38261;54.090;13.382;2022-07-06T02:40:08;13.20;99.90
52321;DHT22;38261;54.090;13.382;2022-07-06T02:41:30;13.20;99.90
52321;DHT22;38261;54.090;13.382;2022-07-06T02:42:53;13.20;99.90
52321;DHT22;38261;54.090;13.382;2022-07-06T02:44:15;13.20;99.90
52321;DHT22;38261;54.090;13.382;2022-07-06T02:45:37;13.20;99.90
52321;DHT22;38261;54.090;13.382;2022-07-06T02:46:59;13.20;99.90
52321;DHT22;38261;54.090;13.382;2022-07-06T02:48:22;13.20;99.90
52321;DHT22;38261;54.090;13.382;2022-07-06T02:49:44;13.20;99.90
52321;DHT22;38261;54.090;13.382;2022-07-06T02:51:06;13.20;99.90
52321;DHT22;38261;54.090;13.382;2022-07-06T02:52:29;13.20;99.90
52321;DHT22;38261;54.090;13.382;2022-07-06T02:53:51;13.20;99.90
52321;DHT22;38261;54.090;13.382;2022-07-06T02:55:13;13.20;99.90
52321;DHT22;38261;54.090;13.382;2022-07-06T02:56:35;13.20;99.90
52321;DHT22;38261;54.090;13.382;2022-07-06T02:57:57;13.20;99.90
52321;DHT22;38261;54.090;13.382;2022-07-06T02:59:20;13.20;99.90
52321;DHT22;38261;54.090;13.382;2022-07-06T03:00:42;13.20;99.90
52321;DHT22;38261;54.090;13.382;2022-07-06T03:02:04;13.20;99.90
52321;DHT22;38261;54.090;13.382;2022-07-06T03:03:27;13.30;99.90
52321;DHT22;38261;54.090;13.382;2022-07-06T03:04:50;13.30;99.90
52321;DHT22;38261;54.090;13.382;2022-07-06T03:06:12;13.30;99.90
52321;DHT22;38261;54.090;13.382;2022-07-06T03:07:34;13.40;99.90
52321;DHT22;38261;54.090;13.382;2022-07-06T03:08:56;13.40;99.90
52321;DHT22;38261;54.090;13.382;2022-07-06T03:10:18;13.40;99.90
52321;DHT22;38261;54.090;13.382;2022-07-06T03:11:40;13.40;99.90
52321;DHT22;38261;54.090;13.382;2022-07-06T03:13:03;13.40;99.90
52321;DHT22;38261;54.090;13.382;2022-07-06T03:14:25;13.40;99.90
52321;DHT22;38261;54.090;13.382;2022-07-06T03:15:47;13.40;99.90
52321;DHT22;38261;54.090;13.382;2022-07-06T03:17:09;13.40;99.90
52321;DHT22;38261;54.090;13.382;2022-07-06T03:18:32;13.40;99.90
52321;DHT22;38261;54.090;13.382;2022-07-06T03:19:54;13.40;99.90
52321;DHT22;38261;54.090;13.382;2022-07-06T03:21:16;13.40;99.90
52321;DHT22;38261;54.090;13.382;2022-07-06T03:22:39;13.40;99.90
52321;DHT22;38261;54.090;13.382;2022-07-06T03:24:01;13.40;99.90
52321;DHT22;38261;54.090;13.382;2022-07-06T03:25:23;13.40;99.90
52321;DHT22;38261;54.090;13.382;2022-07-06T03:26:45;13.40;99.90
52321;DHT22;38261;54.090;13.382;2022-07-06T03:28:07;13.40;99.90
52321;DHT22;38261;54.090;13.382;2022-07-06T03:29:30;13.40;99.90
52321;DHT22;38261;54.090;13.382;2022-07-06T03:30:52;13.40;99.90
52321;DHT22;38261;54.090;13.382;2022-07-06T03:32:14;13.40;99.90
52321;DHT22;38261;54.090;13.382;2022-07-06T03:33:37;13.40;99.90
52321;DHT22;38261;54.090;13.382;2022-07-06T03:34:59;13.50;99.90
52321;DHT22;38261;54.090;13.382;2022-07-06T03:36:21;13.40;99.90
52321;DHT22;38261;54.090;13.382;2022-07-06T03:37:43;13.50;99.90
52321;DHT22;38261;54.090;13.382;2022-07-06T03:39:06;13.50;99.90
52321;DHT22;38261;54.090;13.382;2022-07-06T03:40:28;13.50;99.90
52321;DHT22;38261;54.090;13.382;2022-07-06T03:41:51;13.50;99.90
52321;DHT22;38261;54.090;13.382;2022-07-06T03:43:13;13.60;99.90
52321;DHT22;38261;54.090;13.382;2022-07-06T03:44:35;13.60;99.90
52321;DHT22;38261;54.090;13.382;2022-07-06T03:45:57;13.60;99.90
52321;DHT22;38261;54.090;13.382;2022-07-06T03:47:19;13.70;99.90
52321;DHT22;38261;54.090;13.382;2022-07-06T03:48:42;13.70;99.90
52321;DHT22;38261;54.090;13.382;2022-07-06T03:50:04;13.80;99.90
52321;DHT22;38261;54.090;13.382;2022-07-06T03:51:26;13.80;99.90
52321;DHT22;38261;54.090;13.382;2022-07-06T03:52:49;13.80;99.90
52321;DHT22;38261;54.090;13.382;2022-07-06T03:54:11;13.90;99.90
52321;DHT22;38261;54.090;13.382;2022-07-06T03:55:33;14.00;99.90
52321;DHT22;38261;54.090;13.382;2022-07-06T03:56:55;14.00;99.90
52321;DHT22;38261;54.090;13.382;2022-07-06T03:58:17;14.10;99.90
52321;DHT22;38261;54.090;13.382;2022-07-06T03:59:40;14.10;99.90
52321;DHT22;38261;54.090;13.382;2022-07-06T04:01:02;14.30;99.90
52321;DHT22;38261;54.090;13.382;2022-07-06T04:02:25;14.90;99.90
52321;DHT22;38261;54.090;13.382;2022-07-06T04:03:47;15.90;99.90
52321;DHT22;38261;54.090;13.382;2022-07-06T04:05:09;17.20;99.90
52321;DHT22;38261;54.090;13.382;2022-07-06T04:06:32;18.50;99.90
52321;DHT22;38261;54.090;13.382;2022-07-06T04:07:56;19.70;98.90
52321;DHT22;38261;54.090;13.382;2022-07-06T04:09:18;20.90;96.60
52321;DHT22;38261;54.090;13.382;2022-07-06T04:10:40;22.10;94.50
52321;DHT22;38261;54.090;13.382;2022-07-06T04:12:03;23.00;92.10
52321;DHT22;38261;54.090;13.382;2022-07-06T04:13:25;23.10;91.40
52321;DHT22;38261;54.090;13.382;2022-07-06T04:14:47;23.00;90.90
52321;DHT22;38261;54.090;13.382;2022-07-06T04:16:10;22.80;90.90
52321;DHT22;38261;54.090;13.382;2022-07-06T04:17:32;23.00;90.80
52321;DHT22;38261;54.090;13.382;2022-07-06T04:19:13;23.20;90.30
52321;DHT22;38261;54.090;13.382;2022-07-06T04:20:36;22.80;90.20
52321;DHT22;38261;54.090;13.382;2022-07-06T04:21:58;22.00;90.70
52321;DHT22;38261;54.090;13.382;2022-07-06T04:23:20;21.20;91.40
52321;DHT22;38261;54.090;13.382;2022-07-06T04:24:42;20.50;92.20
52321;DHT22;38261;54.090;13.382;2022-07-06T04:26:04;19.60;93.20
52321;DHT22;38261;54.090;13.382;2022-07-06T04:27:27;18.90;94.20
52321;DHT22;38261;54.090;13.382;2022-07-06T04:28:49;18.30;95.20
52321;DHT22;38261;54.090;13.382;2022-07-06T04:30:11;17.80;96.10
52321;DHT22;38261;54.090;13.382;2022-07-06T04:31:33;17.40;96.90
52321;DHT22;38261;54.090;13.382;2022-07-06T04:32:56;17.20;97.90
52321;DHT22;38261;54.090;13.382;2022-07-06T04:34:18;16.80;98.70
52321;DHT22;38261;54.090;13.382;2022-07-06T04:35:40;16.60;99.50
52321;DHT22;38261;54.090;13.382;2022-07-06T04:37:02;16.40;99.90
52321;DHT22;38261;54.090;13.382;2022-07-06T04:38:25;16.30;99.90
52321;DHT22;38261;54.090;13.382;2022-07-06T04:39:47;16.20;99.90
52321;DHT22;38261;54.090;13.382;2022-07-06T04:41:09;16.20;99.90
52321;DHT22;38261;54.090;13.382;2022-07-06T04:42:32;16.20;99.90
52321;DHT22;38261;54.090;13.382;2022-07-06T04:43:54;16.10;99.90
52321;DHT22;38261;54.090;13.382;2022-07-06T04:45:16;16.10;99.90
52321;DHT22;38261;54.090;13.382;2022-07-06T04:46:38;16.00;99.90
52321;DHT22;38261;54.090;13.382;2022-07-06T04:48:01;15.90;99.90
52321;DHT22;38261;54.090;13.382;2022-07-06T04:49:23;15.80;99.90
52321;DHT22;38261;54.090;13.382;2022-07-06T04:50:45;15.80;99.90
52321;DHT22;38261;54.090;13.382;2022-07-06T04:52:07;15.70;99.90
52321;DHT22;38261;54.090;13.382;2022-07-06T04:53:30;15.70;99.90
52321;DHT22;38261;54.090;13.382;2022-07-06T04:54:54;15.70;99.90
52321;DHT22;38261;54.090;13.382;2022-07-06T04:56:16;15.70;99.90
52321;DHT22;38261;54.090;13.382;2022-07-06T04:57:39;15.70;99.90
52321;DHT22;38261;54.090;13.382;2022-07-06T04:59:01;15.80;99.90
52321;DHT22;38261;54.090;13.382;2022-07-06T05:00:23;15.80;99.90
52321;DHT22;38261;54.090;13.382;2022-07-06T05:01:45;15.80;99.90
52321;DHT22;38261;54.090;13.382;2022-07-06T05:03:08;15.90;99.90
52321;DHT22;38261;54.090;13.382;2022-07-06T05:04:30;15.90;99.90
52321;DHT22;38261;54.090;13.382;2022-07-06T05:05:52;15.90;99.90
52321;DHT22;38261;54.090;13.382;2022-07-06T05:07:15;15.80;99.90
52321;DHT22;38261;54.090;13.382;2022-07-06T05:08:37;15.80;99.90
52321;DHT22;38261;54.090;13.382;2022-07-06T05:10:00;15.70;99.90
52321;DHT22;38261;54.090;13.382;2022-07-06T05:11:22;15.70;99.90
52321;DHT22;38261;54.090;13.382;2022-07-06T05:12:44;15.60;99.90
52321;DHT22;38261;54.090;13.382;2022-07-06T05:14:07;15.60;99.90
52321;DHT22;38261;54.090;13.382;2022-07-06T05:15:29;15.50;99.90
52321;DHT22;38261;54.090;13.382;2022-07-06T05:16:52;15.50;99.90
52321;DHT22;38261;54.090;13.382;2022-07-06T05:18:15;15.40;99.90
52321;DHT22;38261;54.090;13.382;2022-07-06T05:19:37;15.40;99.90
52321;DHT22;38261;54.090;13.382;2022-07-06T05:20:59;15.30;99.90
52321;DHT22;38261;54.090;13.382;2022-07-06T05:22:21;15.30;99.90
52321;DHT22;38261;54.090;13.382;2022-07-06T05:23:44;15.30;99.90
52321;DHT22;38261;54.090;13.382;2022-07-06T05:25:06;15.30;99.90
52321;DHT22;38261;54.090;13.382;2022-07-06T05:26:28;15.30;99.90
52321;DHT22;38261;54.090;13.382;2022-07-06T05:27:50;15.40;99.90
52321;DHT22;38261;54.090;13.382;2022-07-06T05:29:12;15.50;99.90
52321;DHT22;38261;54.090;13.382;2022-07-06T05:30:35;15.60;99.90
52321;DHT22;38261;54.090;13.382;2022-07-06T05:31:57;15.70;99.90
52321;DHT22;38261;54.090;13.382;2022-07-06T05:33:19;15.70;99.90
52321;DHT22;38261;54.090;13.382;2022-07-06T05:34:41;15.70;99.90
52321;DHT22;38261;54.090;13.382;2022-07-06T05:36:04;15.80;99.90
52321;DHT22;38261;54.090;13.382;2022-07-06T05:37:26;15.80;99.90
52321;DHT22;38261;54.090;13.382;2022-07-06T05:38:48;15.90;99.90
52321;DHT22;38261;54.090;13.382;2022-07-06T05:40:11;15.90;99.90
52321;DHT22;38261;54.090;13.382;2022-07-06T05:41:34;16.00;99.90
52321;DHT22;38261;54.090;13.382;2022-07-06T05:42:56;16.10;99.90
52321;DHT22;38261;54.090;13.382;2022-07-06T05:44:18;16.10;99.90
52321;DHT22;38261;54.090;13.382;2022-07-06T05:45:40;16.10;99.90
52321;DHT22;38261;54.090;13.382;2022-07-06T05:47:03;16.20;99.90
52321;DHT22;38261;54.090;13.382;2022-07-06T05:48:44;16.20;99.90
52321;DHT22;38261;54.090;13.382;2022-07-06T05:50:25;16.20;99.90
52321;DHT22;38261;54.090;13.382;2022-07-06T05:51:47;16.30;99.90
52321;DHT22;38261;54.090;13.382;2022-07-06T05:53:09;16.40;99.90
52321;DHT22;38261;54.090;13.382;2022-07-06T05:54:40;16.50;99.90
52321;DHT22;38261;54.090;13.382;2022-07-06T05:56:03;16.60;99.90
52321;DHT22;38261;54.090;13.382;2022-07-06T05:57:25;16.80;99.90
52321;DHT22;38261;54.090;13.382;2022-07-06T05:58:48;17.00;99.90
52321;DHT22;38261;54.090;13.382;2022-07-06T06:00:10;17.20;99.90
52321;DHT22;38261;54.090;13.382;2022-07-06T06:01:33;17.60;99.90
52321;DHT22;38261;54.090;13.382;2022-07-06T06:02:55;17.80;99.90
52321;DHT22;38261;54.090;13.382;2022-07-06T06:04:17;18.00;99.90
52321;DHT22;38261;54.090;13.382;2022-07-06T06:05:39;18.10;99.90
52321;DHT22;38261;54.090;13.382;2022-07-06T06:07:02;18.20;99.90
52321;DHT22;38261;54.090;13.382;2022-07-06T06:08:25;18.30;99.90
52321;DHT22;38261;54.090;13.382;2022-07-06T06:09:48;18.30;99.90
52321;DHT22;38261;54.090;13.382;2022-07-06T06:11:11;18.20;99.90
52321;DHT22;38261;54.090;13.382;2022-07-06T06:12:34;18.10;99.90
52321;DHT22;38261;54.090;13.382;2022-07-06T06:13:56;18.00;99.90
52321;DHT22;38261;54.090;13.382;2022-07-06T06:15:19;17.90;99.90
52321;DHT22;38261;54.090;13.382;2022-07-06T06:16:41;17.90;99.90
52321;DHT22;38261;54.090;13.382;2022-07-06T06:18:04;17.90;99.90
52321;DHT22;38261;54.090;13.382;2022-07-06T06:19:26;17.80;99.90
52321;DHT22;38261;54.090;13.382;2022-07-06T06:20:48;17.80;99.90
52321;DHT22;38261;54.090;13.382;2022-07-06T06:22:11;17.80;99.90
52321;DHT22;38261;54.090;13.382;2022-07-06T06:23:33;17.70;99.90
52321;DHT22;38261;54.090;13.382;2022-07-06T06:24:55;17.70;99.90
52321;DHT22;38261;54.090;13.382;2022-07-06T06:26:18;17.70;99.90
52321;DHT22;38261;54.090;13.382;2022-07-06T06:27:40;17.60;99.90
52321;DHT22;38261;54.090;13.382;2022-07-06T06:29:02;17.50;99.90
52321;DHT22;38261;54.090;13.382;2022-07-06T06:30:24;17.40;99.90
52321;DHT22;38261;54.090;13.382;2022-07-06T06:31:47;17.40;99.90
52321;DHT22;38261;54.090;13.382;2022-07-06T06:33:13;17.40;99.90
52321;DHT22;38261;54.090;13.382;2022-07-06T06:34:35;17.40;99.90
52321;DHT22;38261;54.090;13.382;2022-07-06T06:35:57;17.40;99.90
52321;DHT22;38261;54.090;13.382;2022-07-06T06:37:19;17.30;99.90
52321;DHT22;38261;54.090;13.382;2022-07-06T06:38:42;17.40;99.90
52321;DHT22;38261;54.090;13.382;2022-07-06T06:40:05;17.40;99.90
52321;DHT22;38261;54.090;13.382;2022-07-06T06:41:27;17.40;99.90
52321;DHT22;38261;54.090;13.382;2022-07-06T06:42:50;17.50;99.90
52321;DHT22;38261;54.090;13.382;2022-07-06T06:44:12;17.60;99.90
52321;DHT22;38261;54.090;13.382;2022-07-06T06:45:34;17.60;99.90
52321;DHT22;38261;54.090;13.382;2022-07-06T06:46:57;17.60;99.90
52321;DHT22;38261;54.090;13.382;2022-07-06T06:48:19;17.60;99.90
52321;DHT22;38261;54.090;13.382;2022-07-06T06:49:41;17.80;99.90
52321;DHT22;38261;54.090;13.382;2022-07-06T06:51:06;17.90;99.90
52321;DHT22;38261;54.090;13.382;2022-07-06T06:52:28;18.10;99.90
52321;DHT22;38261;54.090;13.382;2022-07-06T06:54:01;18.30;99.90
52321;DHT22;38261;54.090;13.382;2022-07-06T06:55:23;18.50;99.90
52321;DHT22;38261;54.090;13.382;2022-07-06T06:56:45;18.70;99.90
52321;DHT22;38261;54.090;13.382;2022-07-06T06:58:08;18.90;99.90
52321;DHT22;38261;54.090;13.382;2022-07-06T06:59:30;19.10;99.90
52321;DHT22;38261;54.090;13.382;2022-07-06T07:00:52;19.30;99.90
52321;DHT22;38261;54.090;13.382;2022-07-06T07:02:14;19.50;99.90
52321;DHT22;38261;54.090;13.382;2022-07-06T07:03:38;19.60;99.90
52321;DHT22;38261;54.090;13.382;2022-07-06T07:05:02;19.70;99.90
52321;DHT22;38261;54.090;13.382;2022-07-06T07:06:24;19.80;99.90
52321;DHT22;38261;54.090;13.382;2022-07-06T07:07:46;19.90;99.90
52321;DHT22;38261;54.090;13.382;2022-07-06T07:09:08;19.80;99.90
52321;DHT22;38261;54.090;13.382;2022-07-06T07:10:31;19.90;99.90
52321;DHT22;38261;54.090;13.382;2022-07-06T07:11:53;19.80;99.90
52321;DHT22;38261;54.090;13.382;2022-07-06T07:13:16;19.80;99.90
52321;DHT22;38261;54.090;13.382;2022-07-06T07:14:39;19.80;99.90
52321;DHT22;38261;54.090;13.382;2022-07-06T07:16:01;19.90;99.90
52321;DHT22;38261;54.090;13.382;2022-07-06T07:17:23;20.00;99.90
52321;DHT22;38261;54.090;13.382;2022-07-06T07:18:45;20.10;99.90
52321;DHT22;38261;54.090;13.382;2022-07-06T07:20:08;20.30;99.30
52321;DHT22;38261;54.090;13.382;2022-07-06T07:21:30;20.20;99.60
52321;DHT22;38261;54.090;13.382;2022-07-06T07:22:52;20.00;99.50
52321;DHT22;38261;54.090;13.382;2022-07-06T07:24:14;19.80;99.80
52321;DHT22;38261;54.090;13.382;2022-07-06T07:25:36;19.80;99.70
52321;DHT22;38261;54.090;13.382;2022-07-06T07:27:00;19.80;99.80
52321;DHT22;38261;54.090;13.382;2022-07-06T07:28:23;19.90;99.70
52321;DHT22;38261;54.090;13.382;2022-07-06T07:29:45;20.00;99.60
52321;DHT22;38261;54.090;13.382;2022-07-06T07:31:07;19.90;99.50
52321;DHT22;38261;54.090;13.382;2022-07-06T07:32:30;19.80;99.50
52321;DHT22;38261;54.090;13.382;2022-07-06T07:33:52;19.60;99.90
52321;DHT22;38261;54.090;13.382;2022-07-06T07:35:20;19.40;99.90
52321;DHT22;38261;54.090;13.382;2022-07-06T07:36:42;19.40;99.90
52321;DHT22;38261;54.090;13.382;2022-07-06T07:38:04;19.40;99.90
52321;DHT22;38261;54.090;13.382;2022-07-06T07:39:26;19.30;99.50
52321;DHT22;38261;54.090;13.382;2022-07-06T07:40:49;19.30;99.80
52321;DHT22;38261;54.090;13.382;2022-07-06T07:42:11;19.40;99.50
52321;DHT22;38261;54.090;13.382;2022-07-06T07:43:39;19.60;99.80
52321;DHT22;38261;54.090;13.382;2022-07-06T07:45:01;19.70;99.70
52321;DHT22;38261;54.090;13.382;2022-07-06T07:46:23;20.00;99.50
52321;DHT22;38261;54.090;13.382;2022-07-06T07:47:45;20.20;99.30
52321;DHT22;38261;54.090;13.382;2022-07-06T07:49:07;20.40;98.70
52321;DHT22;38261;54.090;13.382;2022-07-06T07:50:30;20.50;98.20
52321;DHT22;38261;54.090;13.382;2022-07-06T07:51:52;20.50;97.80
52321;DHT22;38261;54.090;13.382;2022-07-06T07:53:15;20.40;97.80
52321;DHT22;38261;54.090;13.382;2022-07-06T07:54:37;20.50;97.80
52321;DHT22;38261;54.090;13.382;2022-07-06T07:56:06;20.50;97.50
52321;DHT22;38261;54.090;13.382;2022-07-06T07:57:28;20.60;97.00
52321;DHT22;38261;54.090;13.382;2022-07-06T07:58:50;20.50;97.00
52321;DHT22;38261;54.090;13.382;2022-07-06T08:00:13;20.40;97.10
52321;DHT22;38261;54.090;13.382;2022-07-06T08:01:35;20.30;97.20
52321;DHT22;38261;54.090;13.382;2022-07-06T08:02:58;20.30;97.50
52321;DHT22;38261;54.090;13.382;2022-07-06T08:04:20;20.40;97.40
52321;DHT22;38261;54.090;13.382;2022-07-06T08:05:42;20.30;97.20
52321;DHT22;38261;54.090;13.382;2022-07-06T08:07:05;20.30;97.20
52321;DHT22;38261;54.090;13.382;2022-07-06T08:08:28;20.40;97.30
52321;DHT22;38261;54.090;13.382;2022-07-06T08:09:50;20.40;97.50
52321;DHT22;38261;54.090;13.382;2022-07-06T08:11:12;20.30;97.70
52321;DHT22;38261;54.090;13.382;2022-07-06T08:12:40;20.00;98.00
52321;DHT22;38261;54.090;13.382;2022-07-06T08:14:07;19.80;98.50
52321;DHT22;38261;54.090;13.382;2022-07-06T08:15:29;19.60;98.70
52321;DHT22;38261;54.090;13.382;2022-07-06T08:16:53;19.40;98.30
52321;DHT22;38261;54.090;13.382;2022-07-06T08:18:15;19.20;98.80
52321;DHT22;38261;54.090;13.382;2022-07-06T08:19:37;19.00;99.30
52321;DHT22;38261;54.090;13.382;2022-07-06T08:20:59;18.80;99.80
52321;DHT22;38261;54.090;13.382;2022-07-06T08:22:43;18.80;99.90
52321;DHT22;38261;54.090;13.382;2022-07-06T08:24:05;18.70;99.90
52321;DHT22;38261;54.090;13.382;2022-07-06T08:25:28;18.50;99.90
52321;DHT22;38261;54.090;13.382;2022-07-06T08:26:50;18.50;99.90
52321;DHT22;38261;54.090;13.382;2022-07-06T08:28:12;18.50;99.90
52321;DHT22;38261;54.090;13.382;2022-07-06T08:29:35;18.50;99.90
52321;DHT22;38261;54.090;13.382;2022-07-06T08:30:57;18.30;99.90
52321;DHT22;38261;54.090;13.382;2022-07-06T08:32:19;18.20;99.90
52321;DHT22;38261;54.090;13.382;2022-07-06T08:34:02;18.20;99.90